Decoded Metar for CYYW (ARMSTRONG in CANADA) (IATA:YYW) | Meteo·Mobile Aviation Weather
aviador You're here:

CYYW Decoded Metar

ARMSTRONG in CANADA
Report Time2019-01-20 10:00:00
UTC Time2019-01-20 10:37:18
Flight Rules vfr VFR
WindCalm
Visibility9999 m
Phenomena:N/A
Clouds:N/A
Expected CloudBase > 2,000 ft AGL from Temp-Dew spread
CeilingNone
Temp-41°C (ISA -54)
Dew Point-46°C (58% RH)
AAT-45.0°C
QNH1032 hPa
Density Alt-6,857 ft
Elevation1,058 ft
Report Wrong Elevation
Raw Report
METAR CYYW 201000Z AUTO 00000KT 9SM CLR M41/M46 A3047 RMK SLP396=

Extra information for CYYW:More info

Metar Taf Metar & Taf Last 4 Metars F.Rules Stats Wind Profile Meteogram Temp Stats Airport Information Weather charts Add Link Nearby VenuesMetar ALERT Operation Metar Decoded Social comments